Catàleg de serveis del Meteocat
Campanya meteocatpedra

Dades de l'estació automàtica Aitona

?
?
Resum diari 21:30 TU
Dades diàries de l'estació meteorològica
Temperatura mitjana 9.5 °C
Temperatura màxima 16.3 °C 15:03 TU
Temperatura mínima 5.1 °C 21:55 TU
Humitat relativa mitjana 79%
Precipitació acumulada 5.6 mm
Ratxa màxima del vent (2 m) 20.5 km/h - 245º 15:16 TU
Irradiació solar global 5.7 MJ/m2

El tram horari està expressat en Temps Universal (TU). Cal sumar una hora en horari d'hivern i dues en horari d'estiu per passar a l'hora oficial.

Aitona

Metadades estació meteorol´gica
Municipi Aitona
Comarca Segrià
Altitud 97 m
Data alta 12.03.1998
Estat actual Operativa
Dades de període
Període
TU
TM
°C
TX
°C
TN
°C
HRM
%
PPT
mm
VVM (2 m)
km/h
DVM (2 m)
graus
VVX (2 m)
km/h
RS
W/m2
00:00 - 00:30 9.9 10.4 9.6 70 0.0 3.6 224 8.3 0
00:30 - 01:00 9.6 9.8 9.2 72 0.0 3.2 225 9.7 0
01:00 - 01:30 9.3 9.6 9.1 74 0.0 2.5 211 7.9 0
01:30 - 02:00 8.7 9.2 8.4 79 0.0 0.7 181 2.2 0
02:00 - 02:30 7.9 8.5 7.5 83 0.0 0.0 183 1.1 0
02:30 - 03:00 7.3 7.5 7.1 88 0.0 0.0 192 1.4 0
03:00 - 03:30 7.8 8.1 7.4 86 0.0 2.5 42 7.9 0
03:30 - 04:00 8.0 8.1 7.8 83 0.0 3.6 34 7.6 0
04:00 - 04:30 8.0 8.2 7.9 83 0.0 3.6 41 9.0 0
04:30 - 05:00 7.7 8.1 7.4 86 0.0 3.2 47 6.8 0
05:00 - 05:30 7.2 7.3 7.1 91 0.3 2.9 50 6.8 0
05:30 - 06:00 6.9 7.1 6.8 93 0.3 2.5 41 6.1 0
06:00 - 06:30 6.7 6.8 6.6 93 0.3 5.4 34 10.4 0
06:30 - 07:00 6.6 6.7 6.6 93 0.4 4.3 34 7.6 0
07:00 - 07:30 6.6 6.6 6.5 94 1.1 6.5 34 10.4 3
07:30 - 08:00 6.7 6.8 6.6 94 0.6 4.7 32 9.4 29
08:00 - 08:30 7.0 7.1 6.9 94 1.0 2.5 11 6.1 26
08:30 - 09:00 7.1 7.2 7.0 94 1.2 1.1 357 5.0 27
09:00 - 09:30 7.4 7.4 7.3 94 0.2 0.4 59 3.6 35
09:30 - 10:00 7.6 7.7 7.4 95 0.2 0.7 138 4.3 56
10:00 - 10:30 7.8 8.0 7.5 95 0.0 1.4 212 4.0 72
10:30 - 11:00 8.3 9.0 7.8 94 0.0 1.1 194 4.3 175
11:00 - 11:30 9.5 10.1 9.0 90 0.0 1.1 205 4.3 252
11:30 - 12:00 10.3 10.5 10.0 87 0.0 1.1 232 4.3 226
12:00 - 12:30 10.9 11.3 10.6 85 0.0 0.7 232 4.7 236
12:30 - 13:00 12.3 13.0 11.1 81 0.0 2.2 202 7.6 430
13:00 - 13:30 13.1 14.3 12.3 78 0.0 2.2 227 7.2 344
13:30 - 14:00 14.3 14.5 14.0 71 0.0 3.6 191 9.4 386
14:00 - 14:30 14.8 15.2 14.4 69 0.0 3.2 193 9.0 317
14:30 - 15:00 15.6 16.1 15.2 68 0.0 4.0 224 14.8 268
15:00 - 15:30 15.7 16.3 15.3 52 0.0 6.5 241 20.5 157
15:30 - 16:00 15.1 15.4 14.6 51 0.0 5.0 258 16.6 114
16:00 - 16:30 14.2 14.6 13.6 53 0.0 6.8 249 20.2 35
16:30 - 17:00 13.0 13.3 12.3 57 0.0 6.5 226 19.8 1
17:00 - 17:30 12.3 12.6 11.3 56 0.0 6.5 209 16.2 0
17:30 - 18:00 10.9 11.3 10.6 62 0.0 4.3 213 10.8 0
18:00 - 18:30 11.2 12.1 10.5 61 0.0 5.4 227 20.2 0
18:30 - 19:00 10.8 11.7 8.9 60 0.0 3.6 224 18.0 0
19:00 - 19:30 8.7 9.1 8.3 70 0.0 3.2 218 7.2 0
19:30 - 20:00 8.1 8.5 7.7 73 0.0 2.2 202 5.8 0
20:00 - 20:30 8.1 8.9 7.6 73 0.0 3.2 228 6.8 0
20:30 - 21:00 7.3 7.7 6.4 79 0.0 1.8 215 5.4 0
21:00 - 21:30 6.4 6.7 5.9 85 0.0 1.1 194 4.3 0
21:30 - 22:00 5.4 5.8 5.1 90 0.0 0.7 213 1.8 0

Les dades en taronja només han passat un control de qualitat automàtic. Resta pendent la seva validació definitiva.